createdAt,value
2024-05-09T00:01:20.438Z,90.46
2024-05-09T00:04:13.061Z,90.64
2024-05-09T00:06:59.025Z,90.52
2024-05-09T00:09:52.006Z,90.86
2024-05-09T00:12:44.452Z,91.06
2024-05-09T00:15:37.326Z,91.19
2024-05-09T00:18:24.238Z,91.78
2024-05-09T00:21:17.367Z,92.63
2024-05-09T00:24:10.146Z,92.65
2024-05-09T00:27:02.651Z,92.70
2024-05-09T00:29:55.541Z,92.88
2024-05-09T00:32:38.560Z,92.86
2024-05-09T00:35:31.253Z,92.93
2024-05-09T00:38:23.923Z,92.88
2024-05-09T00:41:18.955Z,92.57
2024-05-09T00:44:56.889Z,92.85
2024-05-09T00:47:50.528Z,92.82
2024-05-09T00:50:45.752Z,92.74
2024-05-09T00:53:38.661Z,92.95
2024-05-09T00:56:31.642Z,92.78
2024-05-09T00:59:28.687Z,92.59
2024-05-09T01:02:22.350Z,92.68
2024-05-09T01:05:15.231Z,93.10
2024-05-09T01:08:09.028Z,93.34
2024-05-09T01:11:01.786Z,93.39
2024-05-09T01:13:54.127Z,93.01
2024-05-09T01:16:38.891Z,92.49
2024-05-09T01:19:22.383Z,92.39
2024-05-09T01:22:07.917Z,92.26
2024-05-09T01:24:59.910Z,91.98
2024-05-09T01:28:16.317Z,91.89
2024-05-09T01:31:08.636Z,91.97
2024-05-09T01:34:00.593Z,92.05
2024-05-09T01:36:43.192Z,91.94
2024-05-09T01:39:35.252Z,91.83
2024-05-09T01:44:05.760Z,92.09
2024-05-09T01:52:13.252Z,92.02
2024-05-09T01:55:06.323Z,91.92
2024-05-09T01:57:58.570Z,92.06
2024-05-09T02:00:43.727Z,92.00
2024-05-09T02:03:27.077Z,91.94
2024-05-09T02:06:19.157Z,92.11
2024-05-09T02:09:00.984Z,92.04
2024-05-09T02:11:53.189Z,92.42
2024-05-09T02:14:38.695Z,92.63
2024-05-09T02:17:31.069Z,92.80
2024-05-09T02:20:30.552Z,92.97
2024-05-09T02:23:27.792Z,93.03
2024-05-09T02:26:20.071Z,92.82
2024-05-09T02:29:04.651Z,92.79
2024-05-09T02:31:47.910Z,92.83
2024-05-09T02:34:40.107Z,92.67
2024-05-09T02:37:32.151Z,92.70
2024-05-09T02:40:33.208Z,92.60
2024-05-09T02:43:27.843Z,92.80
2024-05-09T02:46:19.915Z,92.88
2024-05-09T02:49:05.897Z,92.95
2024-05-09T02:51:58.135Z,93.14
2024-05-09T02:54:50.163Z,93.19
2024-05-09T02:57:42.191Z,92.97
2024-05-09T03:00:39.033Z,93.20
2024-05-09T03:03:23.807Z,93.17
2024-05-09T03:06:09.193Z,93.18
2024-05-09T03:09:01.627Z,92.98
2024-05-09T03:11:54.360Z,93.01
2024-05-09T03:14:35.552Z,93.31
2024-05-09T03:17:27.523Z,93.63
2024-05-09T03:20:20.409Z,93.51
2024-05-09T03:23:16.246Z,93.55
2024-05-09T03:26:12.697Z,93.54
2024-05-09T03:28:54.575Z,93.50
2024-05-09T03:31:46.817Z,93.64
2024-05-09T03:34:41.239Z,93.52
2024-05-09T03:37:33.239Z,93.57
2024-05-09T03:40:23.679Z,93.47
2024-05-09T03:43:10.904Z,93.40
2024-05-09T03:46:02.958Z,93.74
2024-05-09T03:48:55.179Z,93.74
2024-05-09T03:51:27.039Z,93.77
2024-05-09T03:54:03.584Z,93.57
2024-05-09T03:56:55.555Z,93.62
2024-05-09T03:59:41.376Z,93.41
2024-05-09T04:02:33.489Z,93.25
2024-05-09T04:05:26.171Z,92.94
2024-05-09T04:08:18.345Z,92.48
2024-05-09T04:11:10.529Z,92.01
2024-05-09T04:13:55.682Z,91.34
2024-05-09T04:16:49.882Z,90.70
2024-05-09T04:19:34.376Z,90.43
2024-05-09T04:22:26.615Z,89.57
2024-05-09T04:25:17.626Z,88.49
2024-05-09T04:28:09.954Z,87.69
2024-05-09T04:30:54.720Z,87.34
2024-05-09T04:33:46.823Z,86.77
2024-05-09T04:36:31.394Z,86.37
2024-05-09T04:39:23.372Z,86.14
2024-05-09T04:42:08.412Z,84.83
2024-05-09T04:44:56.431Z,83.77
2024-05-09T04:47:48.451Z,82.05
2024-05-09T04:50:40.689Z,80.49
2024-05-09T04:53:32.976Z,79.41
2024-05-09T04:56:24.193Z,78.80
2024-05-09T04:59:16.241Z,77.79
2024-05-09T05:02:08.572Z,77.30
2024-05-09T05:05:00.973Z,76.86
2024-05-09T05:07:53.156Z,76.03
2024-05-09T05:10:38.036Z,74.33
2024-05-09T05:13:36.669Z,73.38
2024-05-09T05:16:55.093Z,73.10
2024-05-09T05:19:47.340Z,72.65
2024-05-09T05:22:42.941Z,72.31
2024-05-09T05:25:35.157Z,71.88
2024-05-09T05:28:27.064Z,70.83
2024-05-09T05:31:19.377Z,71.03
2024-05-09T05:34:11.707Z,69.97
2024-05-09T05:36:56.580Z,68.70
2024-05-09T05:39:48.556Z,68.78
2024-05-09T05:42:40.660Z,68.54
2024-05-09T05:45:56.587Z,68.78
2024-05-09T05:48:48.826Z,68.57
2024-05-09T05:51:41.052Z,68.04
2024-05-09T05:54:31.778Z,67.64
2024-05-09T05:57:23.892Z,67.52
2024-05-09T06:00:26.040Z,67.84
2024-05-09T06:03:22.565Z,66.69
2024-05-09T06:06:15.886Z,66.26
2024-05-09T06:09:07.836Z,65.42
2024-05-09T06:17:14.224Z,64.13
2024-05-09T06:20:11.041Z,63.44
2024-05-09T06:23:08.346Z,62.00
2024-05-09T06:26:00.613Z,62.25
2024-05-09T06:28:51.302Z,60.78
2024-05-09T06:31:43.735Z,59.27
2024-05-09T06:34:37.008Z,58.53
2024-05-09T06:37:12.385Z,58.77
2024-05-09T06:40:07.282Z,58.60
2024-05-09T06:42:59.003Z,58.80
2024-05-09T06:45:53.025Z,58.33
2024-05-09T06:48:48.099Z,57.73
2024-05-09T06:51:33.164Z,56.68
2024-05-09T06:54:25.077Z,57.44
2024-05-09T06:57:08.415Z,57.70
2024-05-09T07:00:00.669Z,56.73
2024-05-09T07:02:52.937Z,54.16
2024-05-09T07:05:46.254Z,54.41
2024-05-09T07:08:39.057Z,55.17
2024-05-09T07:11:20.298Z,52.77
2024-05-09T07:14:12.454Z,52.29
2024-05-09T07:16:57.352Z,51.97
2024-05-09T07:19:49.640Z,51.02
2024-05-09T07:22:41.879Z,50.40
2024-05-09T07:25:22.909Z,51.50
2024-05-09T07:28:10.787Z,51.40
2024-05-09T07:32:37.837Z,50.16
2024-05-09T07:35:22.890Z,50.10
2024-05-09T07:38:15.250Z,50.40
2024-05-09T07:40:52.756Z,50.35
2024-05-09T07:43:35.958Z,49.96
2024-05-09T07:50:55.874Z,50.47
2024-05-09T07:53:30.006Z,50.36
2024-05-09T07:55:28.153Z,49.54
2024-05-09T07:58:20.173Z,48.66
2024-05-09T08:02:46.839Z,48.14
2024-05-09T08:05:39.070Z,48.46
2024-05-09T08:08:31.295Z,48.85
2024-05-09T08:11:08.614Z,48.85
2024-05-09T08:14:48.725Z,47.39
2024-05-09T08:28:09.243Z,44.91
2024-05-09T08:31:05.162Z,44.59
2024-05-09T08:33:58.070Z,44.91
2024-05-09T08:36:43.760Z,42.28
2024-05-09T08:39:36.783Z,41.04
2024-05-09T08:42:35.838Z,42.01
2024-05-09T08:45:29.585Z,40.64
2024-05-09T08:48:26.830Z,41.43
2024-05-09T08:51:19.161Z,40.48
2024-05-09T08:54:03.956Z,39.59
2024-05-09T08:56:56.255Z,39.93
2024-05-09T08:59:50.669Z,40.44
2024-05-09T09:02:44.382Z,39.86
2024-05-09T09:05:21.350Z,39.74
2024-05-09T09:08:08.430Z,39.61
2024-05-09T09:10:55.542Z,41.02
2024-05-09T09:13:46.040Z,41.14
2024-05-09T09:16:38.168Z,41.21
2024-05-09T09:19:30.327Z,39.27
2024-05-09T09:22:22.600Z,39.26
2024-05-09T09:25:14.525Z,39.10
2024-05-09T09:28:07.727Z,38.87
2024-05-09T09:31:05.380Z,38.70
2024-05-09T09:33:57.946Z,39.48
2024-05-09T09:36:51.400Z,38.42
2024-05-09T09:39:48.826Z,37.23
2024-05-09T09:42:43.584Z,37.36
2024-05-09T09:45:36.922Z,36.98
2024-05-09T09:48:29.050Z,37.54
2024-05-09T09:51:22.535Z,36.45
2024-05-09T09:54:14.726Z,36.05
2024-05-09T09:57:08.055Z,37.70
2024-05-09T10:00:01.543Z,37.71
2024-05-09T10:02:53.554Z,35.93
2024-05-09T10:05:47.366Z,36.39
2024-05-09T10:08:32.878Z,38.14
2024-05-09T10:11:25.438Z,37.28
2024-05-09T10:14:22.803Z,36.38
2024-05-09T10:17:04.638Z,35.88
2024-05-09T10:19:45.637Z,36.99
2024-05-09T10:22:30.835Z,37.07
2024-05-09T10:25:23.745Z,36.38
2024-05-09T10:28:04.920Z,37.09
2024-05-09T10:30:37.459Z,36.22
2024-05-09T10:33:22.275Z,35.78
2024-05-09T10:36:13.560Z,36.41
2024-05-09T10:38:45.605Z,35.74
2024-05-09T10:41:40.363Z,34.77
2024-05-09T10:44:24.736Z,35.78
2024-05-09T10:47:20.390Z,36.44
2024-05-09T10:50:22.211Z,36.30
2024-05-09T10:53:11.501Z,34.35
2024-05-09T10:56:03.932Z,34.50
2024-05-09T10:58:51.695Z,34.29
2024-05-09T11:01:25.165Z,34.31
2024-05-09T11:04:17.770Z,35.15
2024-05-09T11:07:11.364Z,36.70
2024-05-09T11:10:04.901Z,35.64
2024-05-09T11:12:48.487Z,34.26
2024-05-09T11:15:43.904Z,33.49
2024-05-09T11:18:33.457Z,33.34
2024-05-09T11:21:28.442Z,32.77
2024-05-09T11:24:20.712Z,33.52
2024-05-09T11:27:13.533Z,33.47
2024-05-09T11:30:09.205Z,34.03
2024-05-09T11:32:56.035Z,33.55
2024-05-09T11:35:48.527Z,33.51
2024-05-09T11:38:33.492Z,33.54
2024-05-09T11:41:27.060Z,32.63
2024-05-09T11:44:08.730Z,32.65
2024-05-09T11:46:53.297Z,33.15
2024-05-09T11:49:45.904Z,34.77
2024-05-09T11:52:37.960Z,34.27
2024-05-09T11:57:07.708Z,33.77
2024-05-09T11:59:59.724Z,33.86
2024-05-09T12:02:52.574Z,33.72
2024-05-09T12:05:38.611Z,32.41
2024-05-09T12:08:22.254Z,32.84
2024-05-09T12:11:04.464Z,31.80
2024-05-09T12:13:56.564Z,32.28
2024-05-09T12:16:48.812Z,34.44
2024-05-09T12:19:40.958Z,33.42
2024-05-09T12:22:33.048Z,32.15
2024-05-09T12:25:25.158Z,33.03
2024-05-09T12:28:10.022Z,32.39
2024-05-09T12:30:42.316Z,32.26
2024-05-09T12:33:14.635Z,31.69
2024-05-09T12:35:49.171Z,33.09
2024-05-09T12:38:25.052Z,31.39
2024-05-09T12:41:17.153Z,31.15
2024-05-09T12:43:49.570Z,31.20
2024-05-09T12:46:24.317Z,30.55
2024-05-09T12:49:06.870Z,30.43
2024-05-09T12:51:42.128Z,30.42
2024-05-09T12:54:14.101Z,30.66
2024-05-09T12:56:46.008Z,29.69
2024-05-09T12:59:38.342Z,29.75
2024-05-09T13:02:10.499Z,30.46
2024-05-09T13:04:47.379Z,29.63
2024-05-09T13:07:29.530Z,28.74
2024-05-09T13:10:29.055Z,28.61
2024-05-09T13:13:04.473Z,28.87
2024-05-09T13:15:37.496Z,29.86
2024-05-09T13:18:12.495Z,29.55
2024-05-09T13:21:04.667Z,29.73
2024-05-09T13:23:39.747Z,29.54
2024-05-09T13:26:14.678Z,30.10
2024-05-09T13:28:48.792Z,29.22
2024-05-09T13:31:20.817Z,29.18
2024-05-09T13:33:55.412Z,29.74
2024-05-09T13:36:38.443Z,29.58
2024-05-09T13:39:10.902Z,30.24
2024-05-09T13:41:45.732Z,29.45
2024-05-09T13:44:17.644Z,29.35
2024-05-09T13:46:52.528Z,29.60
2024-05-09T13:49:44.675Z,29.92
2024-05-09T13:52:29.410Z,30.30
2024-05-09T13:55:01.568Z,29.90
2024-05-09T13:57:33.735Z,29.40
2024-05-09T14:00:38.042Z,29.36
2024-05-09T14:03:19.218Z,28.68
2024-05-09T14:06:03.474Z,27.82
2024-05-09T14:08:35.544Z,28.48
2024-05-09T14:11:07.673Z,28.92
2024-05-09T14:13:43.244Z,28.97
2024-05-09T14:16:26.357Z,29.17
2024-05-09T14:19:09.113Z,28.79
2024-05-09T14:21:41.072Z,28.11
2024-05-09T14:24:33.398Z,28.76
2024-05-09T14:27:15.664Z,28.96
2024-05-09T14:30:15.056Z,28.86
2024-05-09T14:33:16.220Z,27.73
2024-05-09T14:36:09.279Z,27.95
2024-05-09T14:38:52.279Z,27.67
2024-05-09T14:41:44.290Z,27.67
2024-05-09T14:44:36.269Z,28.84
2024-05-09T14:47:28.326Z,29.20
2024-05-09T14:50:27.875Z,29.80
2024-05-09T14:53:19.386Z,29.06
2024-05-09T14:56:11.804Z,28.80
2024-05-09T14:59:03.868Z,28.88
2024-05-09T15:01:56.120Z,28.45
2024-05-09T15:04:48.424Z,29.16
2024-05-09T15:07:31.706Z,28.94
2024-05-09T15:10:31.517Z,29.18
2024-05-09T15:13:20.288Z,28.62
2024-05-09T15:16:12.854Z,27.85
2024-05-09T15:18:59.522Z,28.23
2024-05-09T15:21:44.572Z,28.65
2024-05-09T15:24:35.813Z,28.20
2024-05-09T15:27:20.929Z,29.03
2024-05-09T15:30:10.407Z,28.12
2024-05-09T15:33:04.642Z,27.95
2024-05-09T15:35:47.532Z,28.59
2024-05-09T15:38:40.182Z,29.15
2024-05-09T15:41:32.084Z,29.04
2024-05-09T15:44:16.997Z,28.89
2024-05-09T15:46:58.927Z,29.15
2024-05-09T15:49:38.463Z,29.53
2024-05-09T15:52:30.664Z,29.09
2024-05-09T15:55:18.742Z,28.22
2024-05-09T15:58:02.954Z,27.88
2024-05-09T16:00:55.589Z,28.03
2024-05-09T16:03:47.927Z,28.32
2024-05-09T16:06:40.591Z,29.24
2024-05-09T16:09:32.724Z,29.74
2024-05-09T16:12:23.483Z,29.55
2024-05-09T16:15:09.136Z,28.52
2024-05-09T16:18:01.385Z,28.51
2024-05-09T16:24:23.978Z,28.75
2024-05-09T16:27:16.084Z,29.05
2024-05-09T16:30:04.066Z,29.51
2024-05-09T16:32:45.225Z,29.81
2024-05-09T16:35:28.603Z,29.64
2024-05-09T16:38:20.993Z,29.38
2024-05-09T16:41:14.846Z,29.17
2024-05-09T16:44:03.964Z,29.17
2024-05-09T16:46:46.971Z,29.27
2024-05-09T16:49:39.115Z,29.67
2024-05-09T16:52:31.218Z,29.23
2024-05-09T16:55:23.220Z,29.41
2024-05-09T16:58:15.623Z,28.90
2024-05-09T17:01:07.757Z,28.63
2024-05-09T17:04:00.141Z,29.23
2024-05-09T17:06:50.924Z,28.90
2024-05-09T17:09:42.926Z,29.32
2024-05-09T17:12:35.111Z,29.61
2024-05-09T17:15:27.287Z,29.62
2024-05-09T17:18:19.663Z,30.45
2024-05-09T17:21:11.636Z,31.16
2024-05-09T17:24:03.802Z,32.01
2024-05-09T17:26:55.760Z,32.43
2024-05-09T17:29:48.160Z,33.47
2024-05-09T17:32:40.781Z,33.97
2024-05-09T17:35:33.139Z,34.51
2024-05-09T17:38:26.074Z,35.62
2024-05-09T17:41:11.811Z,35.90
2024-05-09T17:44:06.278Z,36.63
2024-05-09T17:46:50.811Z,37.38
2024-05-09T17:49:43.039Z,37.51
2024-05-09T17:52:35.188Z,38.21
2024-05-09T17:55:12.773Z,38.94
2024-05-09T17:58:05.543Z,39.60
2024-05-09T18:00:57.907Z,39.95
2024-05-09T18:03:50.252Z,40.46
2024-05-09T18:06:34.997Z,40.86
2024-05-09T18:09:17.086Z,41.30
2024-05-09T18:12:10.168Z,41.87
2024-05-09T18:15:02.677Z,42.13
2024-05-09T18:17:55.129Z,42.46
2024-05-09T18:20:47.291Z,43.07
2024-05-09T18:23:39.542Z,43.22
2024-05-09T18:26:31.565Z,43.37
2024-05-09T18:29:23.704Z,43.73
2024-05-09T18:32:15.598Z,44.07
2024-05-09T18:35:08.883Z,44.84
2024-05-09T18:37:55.441Z,45.05
2024-05-09T18:40:49.257Z,45.18
2024-05-09T18:43:45.237Z,45.42
2024-05-09T18:46:40.624Z,46.00
2024-05-09T18:49:25.470Z,46.25
2024-05-09T18:52:11.436Z,46.34
2024-05-09T18:55:04.386Z,46.41
2024-05-09T18:57:56.599Z,46.48
2024-05-09T19:00:40.232Z,46.72
2024-05-09T19:03:35.118Z,47.34
2024-05-09T19:06:27.269Z,47.48
2024-05-09T19:09:19.430Z,48.62
2024-05-09T19:12:11.546Z,48.83
2024-05-09T19:15:03.727Z,48.53
2024-05-09T19:17:55.837Z,49.50
2024-05-09T19:20:48.054Z,50.17
2024-05-09T19:23:38.084Z,50.25
2024-05-09T19:26:33.005Z,50.18
2024-05-09T19:29:16.755Z,50.43
2024-05-09T19:32:01.890Z,51.35
2024-05-09T19:34:46.701Z,52.62
2024-05-09T19:37:37.219Z,53.53
2024-05-09T19:40:29.003Z,53.67
2024-05-09T19:44:59.170Z,54.33
2024-05-09T19:47:35.548Z,54.75
2024-05-09T19:50:36.853Z,55.08
2024-05-09T19:53:34.361Z,55.74
2024-05-09T19:56:26.549Z,56.40
2024-05-09T19:59:08.684Z,57.71
2024-05-09T20:02:00.978Z,57.82
2024-05-09T20:04:53.136Z,58.54
2024-05-09T20:07:38.018Z,58.62
2024-05-09T20:10:33.025Z,59.35
2024-05-09T20:13:17.079Z,60.08
2024-05-09T20:16:10.350Z,61.06
2024-05-09T20:19:02.551Z,61.09
2024-05-09T20:21:54.743Z,61.01
2024-05-09T20:30:01.125Z,63.12
2024-05-09T20:32:53.155Z,64.44
2024-05-09T20:35:43.661Z,65.44
2024-05-09T20:38:35.906Z,65.57
2024-05-09T20:41:27.944Z,65.41
2024-05-09T20:44:19.837Z,65.39
2024-05-09T20:47:12.081Z,65.48
2024-05-09T20:50:09.163Z,65.68
2024-05-09T20:52:59.023Z,66.03
2024-05-09T20:55:35.400Z,66.77
2024-05-09T20:58:17.723Z,67.39
2024-05-09T21:06:31.613Z,68.05
2024-05-09T21:09:25.007Z,69.23
2024-05-09T21:12:15.580Z,69.23
2024-05-09T21:14:58.976Z,69.30
2024-05-09T21:17:48.771Z,70.19
2024-05-09T21:20:39.099Z,70.45
2024-05-09T21:23:53.732Z,71.36
2024-05-09T21:26:36.651Z,71.26
2024-05-09T21:29:26.309Z,71.58
2024-05-09T21:32:15.789Z,72.42
2024-05-09T21:35:06.292Z,72.19
2024-05-09T21:37:55.600Z,72.56
2024-05-09T21:40:37.459Z,73.59
2024-05-09T21:43:28.640Z,74.24
2024-05-09T21:46:17.912Z,74.47
2024-05-09T21:49:07.333Z,74.56
2024-05-09T21:51:49.978Z,74.59
2024-05-09T21:54:29.213Z,74.60
2024-05-09T21:57:18.498Z,74.63
2024-05-09T21:59:57.508Z,75.05
2024-05-09T22:02:32.391Z,75.10
2024-05-09T22:05:21.666Z,75.32
2024-05-09T22:13:27.086Z,76.03
2024-05-09T22:16:19.881Z,76.83
2024-05-09T22:19:03.823Z,76.75
2024-05-09T22:21:56.685Z,77.09
2024-05-09T22:24:48.425Z,77.58
2024-05-09T22:27:42.054Z,77.87
2024-05-09T22:30:38.477Z,77.84
2024-05-09T22:33:32.977Z,78.77
2024-05-09T22:36:25.902Z,78.98
2024-05-09T22:39:18.374Z,78.93
2024-05-09T22:42:11.062Z,79.65
2024-05-09T22:45:04.153Z,79.73
2024-05-09T22:47:56.943Z,79.92
2024-05-09T22:50:49.195Z,80.09
2024-05-09T22:53:42.098Z,80.29
2024-05-09T22:56:35.586Z,81.05
2024-05-09T22:59:26.994Z,80.89
2024-05-09T23:02:12.937Z,80.85
2024-05-09T23:05:05.156Z,80.88
2024-05-09T23:07:58.513Z,81.11
2024-05-09T23:10:51.266Z,81.21
2024-05-09T23:13:44.261Z,81.91
2024-05-09T23:17:01.475Z,82.49
2024-05-09T23:24:41.031Z,82.43
2024-05-09T23:27:33.186Z,82.56
2024-05-09T23:33:20.381Z,82.99
2024-05-09T23:36:12.529Z,83.05
2024-05-09T23:39:04.741Z,83.15
2024-05-09T23:41:56.796Z,83.23
2024-05-09T23:44:48.811Z,83.47
2024-05-09T23:47:41.184Z,83.56
2024-05-09T23:50:33.633Z,83.84
2024-05-09T23:53:28.669Z,84.05
2024-05-09T23:56:21.445Z,84.09
2024-05-09T23:59:13.246Z,84.13
